Time;durP1;ratioP1;P1;durP2;ratioP2;P2;SDS_P1;SDS_P2;PMS_P1;PMS_P2;Temp;Humidity;BMP_temperature;BMP_pressure;BME280_temperature;BME280_humidity;BME280_pressure;Samples;Min_cycle;Max_cycle;Signal;HPM_P1;HPM_P2
2021/10/03 00:00:59;;;;;;;1.63;0.95;;;;;;;16.70;80.01;99521.78;5012396;28;20045;-77
2021/10/03 00:03:26;;;;;;;2.97;1.35;;;;;;;16.77;79.22;99525.09;5012197;28;20108;-77
2021/10/03 00:05:53;;;;;;;3.45;1.15;;;;;;;16.89;78.53;99530.34;5010531;28;20101;-76
2021/10/03 00:08:19;;;;;;;2.58;1.00;;;;;;;16.92;78.47;99533.31;5005816;28;20032;-81
2021/10/03 00:10:45;;;;;;;3.33;1.20;;;;;;;16.90;78.57;99532.75;5013377;28;20034;-78
2021/10/03 00:13:11;;;;;;;0.80;0.70;;;;;;;16.83;78.88;99528.66;5010109;28;20505;-76
2021/10/03 00:15:38;;;;;;;3.17;1.13;;;;;;;16.88;79.89;99534.00;5010800;28;20042;-77
2021/10/03 00:18:06;;;;;;;2.38;1.25;;;;;;;16.83;80.48;99526.81;5011910;28;20124;-77
2021/10/03 00:20:32;;;;;;;5.05;0.80;;;;;;;16.76;81.00;99541.03;5012420;28;20030;-78
2021/10/03 00:22:58;;;;;;;2.28;1.42;;;;;;;16.81;81.06;99533.28;5014260;28;20033;-76
2021/10/03 00:25:26;;;;;;;1.90;1.00;;;;;;;16.85;80.82;99529.22;5012209;28;20040;-76
2021/10/03 00:27:52;;;;;;;1.75;0.88;;;;;;;16.83;80.65;99528.66;4993381;28;20022;-76
2021/10/03 00:30:18;;;;;;;2.05;1.00;;;;;;;16.82;80.97;99529.63;5018205;28;20041;-76
2021/10/03 00:32:44;;;;;;;3.88;0.80;;;;;;;16.90;79.88;99535.38;5009450;28;20117;-77
2021/10/03 00:35:11;;;;;;;1.60;0.90;;;;;;;16.97;80.31;99545.72;4995349;28;20104;-76
2021/10/03 00:37:37;;;;;;;3.30;0.60;;;;;;;16.90;81.37;99543.22;5013802;28;20061;-78
2021/10/03 00:40:04;;;;;;;1.73;1.00;;;;;;;16.81;81.91;99539.31;5026671;28;20037;-76
2021/10/03 00:42:30;;;;;;;1.48;0.85;;;;;;;16.71;82.23;99542.50;5010734;28;20029;-77
2021/10/03 00:44:55;;;;;;;0.90;0.70;;;;;;;16.75;82.87;99532.38;5010668;28;20476;-76
2021/10/03 00:47:21;;;;;;;1.67;0.60;;;;;;;16.81;82.51;99536.69;5011043;28;20037;-78
2021/10/03 00:49:47;;;;;;;0.73;0.63;;;;;;;16.72;82.79;99538.84;4995285;28;20022;-78
2021/10/03 00:52:12;;;;;;;3.33;0.70;;;;;;;16.63;83.25;99524.53;5008179;28;20041;-77
2021/10/03 00:54:38;;;;;;;3.58;0.75;;;;;;;16.84;81.56;99527.63;5010166;28;20030;-76
2021/10/03 00:57:04;;;;;;;1.20;0.52;;;;;;;16.85;81.01;99535.25;5022571;28;20030;-77
2021/10/03 00:59:31;;;;;;;1.95;0.82;;;;;;;16.89;80.99;99527.72;5012769;28;20033;-79
2021/10/03 01:01:57;;;;;;;0.98;0.77;;;;;;;16.91;81.03;99549.25;5012253;28;20042;-79
2021/10/03 01:04:23;;;;;;;4.90;0.77;;;;;;;16.97;80.76;99537.88;5022850;28;20494;-77
2021/10/03 01:06:49;;;;;;;1.42;0.70;;;;;;;16.97;80.56;99539.69;5005666;28;20040;-78
2021/10/03 01:09:14;;;;;;;2.78;0.80;;;;;;;16.87;81.42;99545.50;5013339;28;20025;-77
2021/10/03 01:11:41;;;;;;;1.27;0.70;;;;;;;16.90;80.85;99531.97;5006107;28;20934;-75
2021/10/03 01:14:06;;;;;;;0.90;0.70;;;;;;;16.94;80.31;99538.31;5011312;28;20029;-77
2021/10/03 01:16:32;;;;;;;1.70;0.90;;;;;;;17.03;79.97;99542.19;5024586;28;20447;-77
2021/10/03 01:18:58;;;;;;;1.48;0.75;;;;;;;17.01;80.19;99533.78;5026469;28;20061;-77
2021/10/03 01:21:25;;;;;;;1.48;1.00;;;;;;;16.95;80.45;99534.66;5009648;28;20124;-77
2021/10/03 01:23:55;;;;;;;0.80;0.60;;;;;;;16.99;80.45;99535.81;5014133;28;20048;-76
2021/10/03 01:26:21;;;;;;;1.30;0.57;;;;;;;17.09;79.74;99532.63;5011366;28;20148;-77
2021/10/03 01:28:48;;;;;;;1.90;0.80;;;;;;;17.06;79.21;99523.38;5008034;28;20079;-75
2021/10/03 01:31:14;;;;;;;1.50;0.70;;;;;;;17.05;79.44;99523.66;5008747;28;20088;-77
2021/10/03 01:33:40;;;;;;;1.70;0.68;;;;;;;17.00;79.64;99524.31;5017644;28;20402;-77
2021/10/03 01:36:08;;;;;;;1.35;0.60;;;;;;;17.00;79.42;99532.16;5006868;28;20028;-74
2021/10/03 01:38:35;;;;;;;1.40;0.73;;;;;;;17.09;78.91;99517.69;5009691;28;20048;-77
2021/10/03 01:41:01;;;;;;;1.58;0.80;;;;;;;17.06;79.13;99525.22;5011365;28;20446;-78
2021/10/03 01:43:26;;;;;;;5.22;0.70;;;;;;;17.00;79.39;99520.91;5011454;28;20030;-77
2021/10/03 01:45:52;;;;;;;3.42;0.75;;;;;;;16.99;79.99;99525.34;5008760;28;20033;-77
2021/10/03 01:48:21;;;;;;;0.88;0.60;;;;;;;17.00;79.15;99511.22;5012735;28;20029;-77
2021/10/03 01:51:00;;;;;;;1.48;0.70;;;;;;;17.07;78.59;99513.72;5015858;28;20494;-77
2021/10/03 01:53:30;;;;;;;2.28;0.82;;;;;;;16.95;79.34;99497.22;4989671;28;20041;-78
2021/10/03 01:55:56;;;;;;;5.45;0.90;;;;;;;17.06;78.86;99501.66;5009472;28;20045;-76
2021/10/03 01:58:24;;;;;;;1.40;0.63;;;;;;;17.06;78.19;99493.78;5012931;28;20109;-77
2021/10/03 02:00:53;;;;;;;3.65;0.85;;;;;;;17.04;78.09;99488.78;5006939;28;20057;-77
2021/10/03 02:03:18;;;;;;;1.73;0.80;;;;;;;17.10;77.78;99485.25;5001871;28;20391;-77
2021/10/03 02:05:45;;;;;;;3.15;0.73;;;;;;;17.00;78.32;99479.00;5009218;28;20034;-76
2021/10/03 02:08:13;;;;;;;6.63;1.17;;;;;;;17.05;77.88;99486.97;5008692;28;20036;-78
2021/10/03 02:10:46;;;;;;;2.00;0.90;;;;;;;17.06;77.69;99489.34;5019289;28;20057;-76
2021/10/03 02:13:12;;;;;;;1.08;0.80;;;;;;;17.05;77.62;99484.38;5000530;28;20031;-78
2021/10/03 02:15:42;;;;;;;1.33;0.70;;;;;;;17.11;77.54;99475.59;5010075;28;20123;-76
2021/10/03 02:18:10;;;;;;;2.35;0.80;;;;;;;17.12;77.33;99477.16;5011856;28;20076;-78
2021/10/03 02:20:36;;;;;;;1.90;1.10;;;;;;;17.09;77.82;99472.41;5013856;28;20034;-76
2021/10/03 02:23:04;;;;;;;3.05;0.90;;;;;;;17.05;77.72;99466.81;5007357;28;20064;-78
2021/10/03 02:25:29;;;;;;;1.45;0.90;;;;;;;17.02;77.88;99464.66;5013346;28;20090;-78
2021/10/03 02:27:55;;;;;;;1.20;0.90;;;;;;;17.06;77.46;99465.00;5023338;28;20042;-75
2021/10/03 02:30:20;;;;;;;1.20;0.52;;;;;;;17.07;77.83;99456.13;4990457;28;20034;-79
2021/10/03 02:32:47;;;;;;;3.25;0.80;;;;;;;17.12;77.29;99464.06;5002382;28;20034;-77
2021/10/03 02:35:12;;;;;;;2.05;0.90;;;;;;;17.04;78.00;99459.97;5017037;28;20031;-78
2021/10/03 02:37:40;;;;;;;1.15;0.90;;;;;;;17.05;77.90;99451.13;5024287;28;20041;-76
2021/10/03 02:40:08;;;;;;;1.45;0.65;;;;;;;17.02;78.38;99448.94;5010632;28;20530;-79
2021/10/03 02:42:34;;;;;;;5.18;0.80;;;;;;;17.06;78.13;99451.91;5017563;28;20772;-78
2021/10/03 02:45:00;;;;;;;0.90;0.68;;;;;;;17.05;77.71;99463.41;5013672;28;20029;-79
2021/10/03 02:47:25;;;;;;;1.75;1.20;;;;;;;17.09;77.47;99452.25;5012816;28;20037;-77
2021/10/03 02:49:51;;;;;;;1.77;0.80;;;;;;;17.05;77.82;99458.97;5009136;28;20025;-76
2021/10/03 02:52:17;;;;;;;2.17;1.00;;;;;;;17.01;78.30;99442.13;5018888;28;20054;-78
2021/10/03 02:54:42;;;;;;;1.73;0.90;;;;;;;17.06;78.58;99455.31;5018135;28;20022;-76
2021/10/03 02:57:09;;;;;;;1.08;0.90;;;;;;;16.98;78.23;99442.59;5013326;28;20030;-77
2021/10/03 02:59:34;;;;;;;4.72;1.13;;;;;;;16.88;78.92;99443.19;5010112;28;20092;-77
2021/10/03 03:02:00;;;;;;;2.00;1.02;;;;;;;16.79;79.55;99441.13;5009023;28;20526;-76
2021/10/03 03:04:25;;;;;;;1.60;1.00;;;;;;;16.90;79.35;99438.50;5014212;28;20026;-76
2021/10/03 03:06:51;;;;;;;1.45;1.08;;;;;;;16.79;79.57;99434.03;5016897;28;20064;-75
2021/10/03 03:09:17;;;;;;;2.25;1.08;;;;;;;16.80;78.88;99446.13;5011592;28;20026;-77
2021/10/03 03:11:43;;;;;;;2.22;1.20;;;;;;;16.71;79.11;99443.06;5014853;28;20033;-76
2021/10/03 03:14:09;;;;;;;4.80;1.42;;;;;;;16.77;78.57;99430.09;5027365;28;20109;-76
2021/10/03 03:16:44;;;;;;;3.50;1.30;;;;;;;16.79;77.68;99426.19;5015853;28;20029;-76
2021/10/03 03:19:09;;;;;;;3.03;1.27;;;;;;;16.81;77.51;99425.97;5012254;28;20041;-76
2021/10/03 03:21:35;;;;;;;5.95;1.92;;;;;;;16.70;77.68;99428.34;5017653;28;20033;-77
2021/10/03 03:24:00;;;;;;;5.38;2.20;;;;;;;16.83;76.13;99422.13;5012799;28;20030;-77
2021/10/03 03:26:26;;;;;;;3.50;1.77;;;;;;;16.91;75.77;99424.41;5009250;28;20026;-76
2021/10/03 03:28:51;;;;;;;2.90;1.90;;;;;;;17.01;74.87;99426.41;5014434;28;20390;-77
2021/10/03 03:31:17;;;;;;;5.90;2.10;;;;;;;17.08;74.59;99421.84;5010085;28;20483;-76
2021/10/03 03:33:42;;;;;;;7.25;1.98;;;;;;;17.02;74.55;99427.22;5013024;28;20099;-77
2021/10/03 03:36:08;;;;;;;8.00;2.00;;;;;;;17.09;73.53;99427.88;5010873;28;20034;-75
2021/10/03 03:38:36;;;;;;;6.85;1.63;;;;;;;17.13;73.88;99424.56;5022445;28;20049;-74
2021/10/03 03:41:04;;;;;;;3.55;1.85;;;;;;;17.12;73.60;99425.59;5013590;28;20647;-75
2021/10/03 03:43:29;;;;;;;3.40;1.95;;;;;;;17.01;74.28;99426.41;5014970;28;20124;-76
2021/10/03 03:45:55;;;;;;;5.35;2.28;;;;;;;17.04;73.67;99422.53;5014224;28;20029;-79
2021/10/03 03:48:21;;;;;;;6.10;2.25;;;;;;;17.12;73.12;99414.31;4990160;28;20030;-76
2021/10/03 03:50:46;;;;;;;8.40;2.20;;;;;;;16.97;73.65;99424.47;5017405;28;20028;-75
2021/10/03 03:53:12;;;;;;;3.63;2.05;;;;;;;17.06;72.84;99415.25;5011247;28;20034;-78
2021/10/03 03:55:37;;;;;;;5.07;2.40;;;;;;;17.07;73.01;99428.09;5009595;28;20038;-77
2021/10/03 03:58:03;;;;;;;3.38;2.25;;;;;;;16.95;73.45;99429.16;5014647;28;20441;-78
2021/10/03 04:00:29;;;;;;;5.57;2.47;;;;;;;16.95;72.98;99416.06;5018003;28;20029;-80
2021/10/03 04:02:54;;;;;;;8.15;2.85;;;;;;;17.06;73.18;99423.09;5010804;28;20455;-77
2021/10/03 04:05:20;;;;;;;4.07;2.47;;;;;;;16.98;73.16;99419.03;5011255;28;20033;-78
2021/10/03 04:07:45;;;;;;;6.47;2.33;;;;;;;16.90;73.60;99424.63;5011012;28;20040;-75
2021/10/03 04:10:11;;;;;;;7.10;2.42;;;;;;;16.99;72.55;99415.38;5017162;28;20030;-80
2021/10/03 04:12:37;;;;;;;4.45;2.22;;;;;;;16.89;73.10;99413.34;5012437;28;20394;-77
2021/10/03 04:15:06;;;;;;;6.50;2.40;;;;;;;16.92;72.70;99412.88;5010471;28;20475;-77
2021/10/03 04:17:31;;;;;;;11.38;3.00;;;;;;;16.85;72.89;99408.81;5015637;28;20119;-77
2021/10/03 04:19:57;;;;;;;6.50;2.25;;;;;;;16.88;72.40;99408.34;5018526;28;20424;-76
2021/10/03 04:22:22;;;;;;;11.73;2.72;;;;;;;16.85;72.17;99406.97;5010720;28;20036;-77
2021/10/03 04:24:49;;;;;;;3.28;2.30;;;;;;;16.84;72.33;99408.00;5015771;28;20037;-75
2021/10/03 04:27:15;;;;;;;6.38;2.60;;;;;;;16.87;72.30;99406.75;5016253;28;20507;-76
2021/10/03 04:29:41;;;;;;;6.28;2.72;;;;;;;16.92;71.67;99397.19;5008419;28;20044;-77
2021/10/03 04:32:07;;;;;;;4.38;2.50;;;;;;;16.96;71.33;99401.97;5026784;28;20038;-77
2021/10/03 04:34:33;;;;;;;5.25;2.78;;;;;;;16.93;71.29;99406.63;5010361;28;20033;-77
2021/10/03 04:37:00;;;;;;;8.43;2.85;;;;;;;16.93;71.49;99397.97;5008466;28;20037;-76
2021/10/03 04:39:26;;;;;;;7.15;3.00;;;;;;;16.89;71.71;99408.09;5012080;28;20030;-77
2021/10/03 04:41:52;;;;;;;5.78;2.75;;;;;;;16.81;72.21;99405.81;5009046;28;20041;-77
2021/10/03 04:44:18;;;;;;;5.85;2.65;;;;;;;17.00;71.26;99401.25;5008019;28;20061;-78
2021/10/03 04:46:43;;;;;;;6.28;2.33;;;;;;;17.01;71.28;99415.13;4991436;28;20060;-76
2021/10/03 04:49:09;;;;;;;4.35;2.63;;;;;;;17.02;71.23;99411.50;5009292;28;20025;-77
2021/10/03 04:51:35;;;;;;;6.38;2.58;;;;;;;17.10;70.79;99393.63;5018083;28;20036;-77
2021/10/03 04:54:00;;;;;;;8.63;2.80;;;;;;;17.09;70.41;99397.25;5011729;28;20057;-77
2021/10/03 04:56:28;;;;;;;8.60;2.92;;;;;;;17.01;71.14;99400.25;5010771;28;20030;-76
2021/10/03 04:58:54;;;;;;;10.18;3.17;;;;;;;17.10;70.35;99383.13;5009128;28;20402;-75
2021/10/03 05:01:19;;;;;;;6.43;3.20;;;;;;;17.08;70.15;99392.22;5009816;28;20038;-76
2021/10/03 05:03:45;;;;;;;5.97;2.50;;;;;;;17.06;70.42;99387.22;5011079;28;20742;-77
2021/10/03 05:06:11;;;;;;;6.57;3.08;;;;;;;17.19;69.61;99390.63;5008467;28;20504;-78
2021/10/03 05:08:37;;;;;;;7.63;3.15;;;;;;;17.27;69.43;99375.34;5008370;28;20037;-77
2021/10/03 05:11:04;;;;;;;10.82;3.30;;;;;;;17.33;68.95;99378.84;5011699;28;20126;-77
2021/10/03 05:13:29;;;;;;;10.80;3.03;;;;;;;17.33;69.05;99378.84;5007697;28;20034;-77
2021/10/03 05:15:56;;;;;;;10.02;3.63;;;;;;;17.29;68.98;99378.50;5008440;28;20052;-77
2021/10/03 05:18:22;;;;;;;8.05;3.55;;;;;;;17.18;69.74;99373.28;5009609;28;20034;-77
2021/10/03 05:20:47;;;;;;;5.70;3.13;;;;;;;17.20;69.23;99379.13;5001735;28;20034;-76
2021/10/03 05:23:13;;;;;;;6.47;3.30;;;;;;;17.24;69.10;99373.16;5010752;28;20049;-76
2021/10/03 05:25:38;;;;;;;7.45;3.67;;;;;;;17.29;69.04;99370.66;4996927;28;20025;-77
2021/10/03 05:28:04;;;;;;;12.85;3.70;;;;;;;17.22;69.61;99367.38;5022962;28;20033;-77
2021/10/03 05:30:29;;;;;;;7.18;3.00;;;;;;;17.34;68.65;99366.53;5008053;28;20033;-76
2021/10/03 05:32:55;;;;;;;11.25;3.30;;;;;;;17.24;69.30;99360.06;5007177;28;20033;-76
2021/10/03 05:35:21;;;;;;;15.35;3.38;;;;;;;17.34;68.82;99369.94;5014702;28;20505;-74
2021/10/03 05:37:48;;;;;;;14.25;3.95;;;;;;;17.27;69.02;99374.50;5008658;28;20490;-77
2021/10/03 05:40:14;;;;;;;13.00;4.93;;;;;;;17.25;69.09;99364.28;5008718;28;20022;-77
2021/10/03 05:42:40;;;;;;;10.98;3.67;;;;;;;17.36;68.85;99372.31;5006004;28;20038;-76
2021/10/03 05:45:06;;;;;;;16.17;3.70;;;;;;;17.30;69.29;99369.59;5010354;28;20117;-76
2021/10/03 05:47:32;;;;;;;11.35;3.50;;;;;;;17.60;67.69;99376.41;5014889;28;20040;-76
2021/10/03 05:49:57;;;;;;;11.45;3.70;;;;;;;17.68;67.89;99365.53;5009426;28;20034;-77
2021/10/03 05:52:23;;;;;;;10.20;3.70;;;;;;;17.59;68.45;99374.81;5008860;28;20029;-76
2021/10/03 05:54:48;;;;;;;13.38;3.20;;;;;;;17.63;68.46;99375.13;5010362;28;20034;-76
2021/10/03 05:57:14;;;;;;;11.63;4.25;;;;;;;17.51;69.36;99369.97;5007382;28;20030;-77
2021/10/03 05:59:39;;;;;;;10.27;3.20;;;;;;;17.51;69.10;99368.13;5009340;28;20424;-77
2021/10/03 06:02:05;;;;;;;11.43;3.33;;;;;;;17.65;68.94;99367.81;5012293;28;20398;-77
2021/10/03 06:04:30;;;;;;;9.57;3.53;;;;;;;17.59;69.53;99361.72;5010271;28;20045;-77
2021/10/03 06:06:57;;;;;;;8.23;3.42;;;;;;;17.50;70.34;99365.78;4996448;28;20029;-78
2021/10/03 06:09:23;;;;;;;6.80;3.60;;;;;;;17.47;70.56;99366.22;5007583;28;20057;-77
2021/10/03 06:11:49;;;;;;;7.20;3.15;;;;;;;17.42;71.71;99374.81;5012764;28;20038;-78
2021/10/03 06:14:15;;;;;;;9.02;4.05;;;;;;;17.53;70.06;99373.13;5011535;28;20119;-77
2021/10/03 06:16:42;;;;;;;11.32;3.58;;;;;;;17.48;70.89;99371.25;5014075;28;20132;-77
2021/10/03 06:19:11;;;;;;;10.07;3.92;;;;;;;17.47;71.24;99384.56;5026602;28;20546;-76
2021/10/03 06:21:39;;;;;;;15.52;3.75;;;;;;;17.31;72.41;99376.44;5000097;28;20042;-77
2021/10/03 06:24:06;;;;;;;9.52;3.70;;;;;;;17.30;72.37;99380.09;5016434;28;20034;-77
2021/10/03 06:26:31;;;;;;;11.73;4.10;;;;;;;17.31;72.35;99381.69;5011853;28;20148;-76
2021/10/03 06:28:57;;;;;;;6.68;3.83;;;;;;;17.21;73.02;99378.88;5014906;28;20041;-77
2021/10/03 06:31:22;;;;;;;8.63;4.05;;;;;;;17.17;73.35;99377.75;5012928;28;20026;-77
2021/10/03 06:33:48;;;;;;;8.07;3.70;;;;;;;17.15;74.59;99386.88;5010495;28;20890;-78
2021/10/03 06:36:13;;;;;;;12.88;4.40;;;;;;;17.04;74.32;99388.50;4996591;28;20087;-77
2021/10/03 06:38:39;;;;;;;8.23;4.10;;;;;;;17.12;73.41;99386.31;5025168;28;20038;-77
2021/10/03 06:41:05;;;;;;;9.85;4.57;;;;;;;17.00;75.10;99385.53;5025919;28;20033;-76
2021/10/03 06:43:35;;;;;;;9.52;4.18;;;;;;;17.05;74.39;99390.88;5017226;28;20543;-76
2021/10/03 06:46:03;;;;;;;7.82;4.15;;;;;;;17.03;74.45;99384.31;5014682;28;20084;-76
2021/10/03 06:48:29;;;;;;;9.20;4.15;;;;;;;17.01;74.73;99396.81;5015963;28;20034;-79
2021/10/03 06:50:55;;;;;;;10.05;5.25;;;;;;;17.05;74.64;99395.34;5017559;28;20053;-76
2021/10/03 06:53:20;;;;;;;10.25;4.10;;;;;;;17.05;75.62;99403.19;5015863;28;20037;-79
2021/10/03 06:55:46;;;;;;;9.43;4.38;;;;;;;16.92;76.88;99399.00;5019892;28;20406;-78
2021/10/03 06:58:11;;;;;;;11.82;4.68;;;;;;;17.01;75.45;99399.41;5014739;28;20166;-77
2021/10/03 07:00:37;;;;;;;6.78;4.28;;;;;;;16.93;76.69;99401.41;5021114;28;20038;-79
2021/10/03 07:03:02;;;;;;;14.50;4.88;;;;;;;16.93;77.43;99411.88;5018713;28;20037;-77
2021/10/03 07:05:28;;;;;;;15.80;5.20;;;;;;;16.97;76.99;99398.31;5019088;28;20124;-78
2021/10/03 07:07:53;;;;;;;9.50;4.68;;;;;;;16.89;78.02;99397.63;5014157;28;20040;-77
2021/10/03 07:10:19;;;;;;;8.45;4.55;;;;;;;17.05;77.58;99409.22;5014106;28;20037;-78
2021/10/03 07:12:44;;;;;;;12.48;4.55;;;;;;;16.84;78.64;99407.19;5012211;28;20052;-77
2021/10/03 07:15:10;;;;;;;8.48;5.03;;;;;;;16.80;79.02;99412.09;5017303;28;20039;-77
2021/10/03 07:17:36;;;;;;;9.32;4.53;;;;;;;16.81;79.50;99397.19;5015372;28;20033;-79
2021/10/03 07:20:03;;;;;;;10.13;5.10;;;;;;;16.80;79.79;99409.47;4994448;28;20042;-78
2021/10/03 07:22:28;;;;;;;8.38;4.22;;;;;;;16.77;79.93;99396.84;5010641;28;20034;-77
2021/10/03 07:24:54;;;;;;;9.80;5.05;;;;;;;16.78;81.01;99402.88;5015632;28;20045;-78
2021/10/03 07:27:19;;;;;;;9.57;5.15;;;;;;;16.67;81.31;99407.91;5014545;28;20038;-77
2021/10/03 07:29:45;;;;;;;12.18;5.43;;;;;;;16.68;81.93;99401.63;5020140;28;20042;-78
2021/10/03 07:32:11;;;;;;;14.38;5.78;;;;;;;16.81;81.16;99405.81;5018305;28;20497;-77
2021/10/03 07:34:37;;;;;;;10.82;5.53;;;;;;;16.93;80.07;99408.44;5026680;28;20061;-78
2021/10/03 07:37:03;;;;;;;10.70;5.63;;;;;;;16.94;80.20;99407.44;5013620;28;20065;-78
2021/10/03 07:39:30;;;;;;;9.68;4.68;;;;;;;16.91;81.21;99407.88;5025759;28;20069;-79
2021/10/03 07:41:55;;;;;;;9.82;5.35;;;;;;;16.91;81.05;99411.31;5014738;28;20033;-76
2021/10/03 07:44:21;;;;;;;10.20;5.22;;;;;;;16.82;81.09;99414.47;4990348;28;20030;-78
2021/10/03 07:46:46;;;;;;;12.10;5.18;;;;;;;16.85;80.75;99406.19;5031341;28;20044;-78
2021/10/03 07:49:13;;;;;;;12.15;4.80;;;;;;;17.01;79.29;99408.09;5007142;28;20026;-79
2021/10/03 07:51:38;;;;;;;11.85;5.47;;;;;;;17.11;79.65;99417.97;5037409;28;20034;-78
2021/10/03 07:54:04;;;;;;;11.88;5.22;;;;;;;17.23;77.86;99410.06;5017659;28;20044;-76
2021/10/03 07:56:29;;;;;;;10.98;4.97;;;;;;;17.21;78.09;99426.00;5019074;28;20663;-75
2021/10/03 07:58:55;;;;;;;9.75;4.57;;;;;;;17.32;77.42;99412.06;5020530;28;20083;-76
2021/10/03 08:01:21;;;;;;;11.68;4.85;;;;;;;17.38;76.08;99410.34;5013488;28;20037;-78
2021/10/03 08:03:47;;;;;;;13.70;4.30;;;;;;;17.49;75.58;99414.75;5007646;28;20478;-77
2021/10/03 08:06:13;;;;;;;9.63;4.57;;;;;;;17.50;75.94;99415.56;5017532;28;20026;-77
2021/10/03 08:08:38;;;;;;;14.90;4.82;;;;;;;17.46;75.77;99411.78;5014434;28;20076;-77
2021/10/03 08:11:04;;;;;;;15.02;4.93;;;;;;;17.46;75.86;99399.50;5011988;28;20037;-76
2021/10/03 08:13:29;;;;;;;9.10;4.18;;;;;;;17.54;74.81;99400.94;5003035;28;20113;-77
2021/10/03 08:15:55;;;;;;;11.27;4.70;;;;;;;17.48;75.29;99401.91;5020593;28;20120;-77
2021/10/03 08:18:20;;;;;;;11.85;4.20;;;;;;;17.48;75.25;99407.13;5011147;28;20285;-77
2021/10/03 08:20:47;;;;;;;20.80;5.88;;;;;;;17.56;75.28;99403.34;5015989;28;20617;-78
2021/10/03 08:23:13;;;;;;;10.40;4.32;;;;;;;17.58;75.25;99396.81;5011381;28;20037;-77
2021/10/03 08:25:39;;;;;;;7.97;4.50;;;;;;;17.68;75.35;99401.44;5017951;28;20486;-76
2021/10/03 08:28:04;;;;;;;15.05;4.85;;;;;;;17.50;75.96;99395.38;5021083;28;20666;-79
2021/10/03 08:30:30;;;;;;;9.15;4.30;;;;;;;17.55;75.85;99406.97;5010074;28;20061;-75
2021/10/03 08:32:56;;;;;;;10.55;4.25;;;;;;;17.50;76.39;99408.47;5010427;28;20273;-77
2021/10/03 08:35:22;;;;;;;5.57;4.05;;;;;;;17.71;74.46;99417.50;5013724;28;20049;-77
2021/10/03 08:37:47;;;;;;;7.22;4.25;;;;;;;17.68;74.92;99406.69;4992928;28;20521;-77
2021/10/03 08:40:13;;;;;;;12.18;4.47;;;;;;;17.63;75.87;99414.44;5014786;28;20273;-77
2021/10/03 08:42:40;;;;;;;9.13;4.40;;;;;;;17.56;76.49;99416.44;5012550;28;20060;-75
2021/10/03 08:45:07;;;;;;;8.10;4.30;;;;;;;17.42;77.23;99418.53;5016246;28;20479;-76
2021/10/03 08:47:37;;;;;;;9.93;4.55;;;;;;;17.47;77.56;99422.03;4997208;28;20045;-77
2021/10/03 08:50:09;;;;;;;14.90;5.43;;;;;;;17.34;78.27;99426.78;5009289;28;20045;-76
2021/10/03 08:52:36;;;;;;;8.32;5.30;;;;;;;17.37;78.28;99426.31;5008906;28;20033;-76
2021/10/03 08:55:02;;;;;;;9.57;4.60;;;;;;;17.35;78.89;99436.22;5009135;28;20034;-76
2021/10/03 08:57:27;;;;;;;8.52;4.53;;;;;;;17.23;79.75;99433.63;5007803;28;20038;-76
2021/10/03 09:00:17;;;;;;;6.68;4.18;;;;;;;17.31;79.11;99446.38;5007693;28;20040;-76
2021/10/03 09:03:07;;;;;;;9.40;5.15;;;;;;;17.21;80.29;99431.25;5025293;28;20042;-77
2021/10/03 09:05:37;;;;;;;8.40;4.55;;;;;;;17.22;80.13;99432.84;5008396;28;20390;-77
2021/10/03 09:08:06;;;;;;;9.55;5.90;;;;;;;17.11;80.98;99436.28;5008340;28;20034;-76
2021/10/03 09:10:56;;;;;;;7.90;4.57;;;;;;;17.08;81.76;99424.47;5006506;28;20410;-76
2021/10/03 09:13:41;;;;;;;7.72;4.18;;;;;;;17.20;80.45;99418.41;5008602;28;20152;-75
2021/10/03 09:16:39;;;;;;;6.22;4.15;;;;;;;17.12;81.02;99415.13;5014104;28;20069;-77
2021/10/03 09:19:13;;;;;;;7.72;5.00;;;;;;;17.12;81.68;99412.50;5013963;28;20049;-77
2021/10/03 09:21:44;;;;;;;6.20;4.15;;;;;;;17.17;80.86;99414.41;5016337;28;20355;-77
2021/10/03 09:24:18;;;;;;;11.45;5.13;;;;;;;17.26;80.51;99420.88;5012294;28;20641;-76
2021/10/03 09:27:03;;;;;;;8.07;4.53;;;;;;;17.27;80.24;99421.66;5015988;28;20088;-78
2021/10/03 09:29:36;;;;;;;7.70;4.45;;;;;;;17.23;80.30;99420.53;5014869;28;20171;-77
2021/10/03 09:32:08;;;;;;;9.23;4.82;;;;;;;17.28;81.23;99418.03;5019259;28;20132;-77
2021/10/03 09:34:34;;;;;;;10.05;4.70;;;;;;;17.34;80.42;99422.31;5012042;28;20076;-77
2021/10/03 09:37:19;;;;;;;7.03;5.00;;;;;;;17.31;80.71;99430.66;5021334;28;20040;-78
2021/10/03 09:39:45;;;;;;;12.35;5.03;;;;;;;17.36;80.90;99430.75;5037924;28;20474;-76
2021/10/03 09:42:15;;;;;;;8.20;4.20;;;;;;;17.36;80.88;99440.44;5009506;28;20033;-77
2021/10/03 09:45:08;;;;;;;8.30;4.82;;;;;;;17.31;80.90;99430.66;5013776;28;20617;-76
2021/10/03 09:47:35;;;;;;;10.13;4.35;;;;;;;17.39;80.85;99440.78;5005682;28;20043;-78
2021/10/03 09:50:03;;;;;;;6.93;4.70;;;;;;;17.41;80.76;99428.22;5018942;28;20548;-76
2021/10/03 09:52:29;;;;;;;13.05;4.35;;;;;;;17.58;79.08;99411.75;5012330;28;20067;-76
2021/10/03 09:54:56;;;;;;;10.10;4.63;;;;;;;17.71;78.87;99435.84;5012809;28;20041;-78
2021/10/03 09:57:22;;;;;;;15.95;4.57;;;;;;;17.77;78.34;99443.81;5017695;28;20013;-75
2021/10/03 09:59:48;;;;;;;10.15;3.78;;;;;;;17.83;77.87;99435.78;5023748;28;20517;-77
2021/10/03 10:02:14;;;;;;;15.98;5.22;;;;;;;17.88;78.03;99427.25;5011963;28;20490;-76
2021/10/03 10:04:39;;;;;;;10.45;5.32;;;;;;;18.00;77.18;99435.03;4989666;28;20042;-76
2021/10/03 10:07:05;;;;;;;18.25;4.18;;;;;;;17.99;76.95;99441.28;5006391;28;20024;-76
2021/10/03 10:09:33;;;;;;;11.63;4.00;;;;;;;18.13;76.45;99439.97;5010673;28;20029;-75
2021/10/03 10:12:05;;;;;;;10.82;4.90;;;;;;;18.11;77.29;99431.53;4993663;28;20045;-76
2021/10/03 10:14:44;;;;;;;9.93;4.00;;;;;;;18.08;77.19;99438.06;5025870;28;20041;-76
2021/10/03 10:17:35;;;;;;;17.25;4.43;;;;;;;18.19;75.76;99435.59;5010783;28;20026;-76
2021/10/03 10:20:15;;;;;;;13.70;3.92;;;;;;;18.25;75.75;99435.44;5013527;28;20033;-76
2021/10/03 10:23:01;;;;;;;14.60;4.50;;;;;;;18.31;75.43;99441.56;5007951;28;20068;-77
2021/10/03 10:25:50;;;;;;;18.17;5.50;;;;;;;18.22;76.45;99454.28;5016962;28;20029;-76
2021/10/03 10:28:27;;;;;;;9.60;4.05;;;;;;;18.32;76.81;99443.13;5023193;28;20415;-77
2021/10/03 10:31:19;;;;;;;12.88;4.82;;;;;;;18.30;76.82;99442.56;5015674;28;20100;-77
2021/10/03 10:33:51;;;;;;;10.45;4.35;;;;;;;18.31;77.41;99446.81;4994696;28;20036;-77
2021/10/03 10:36:21;;;;;;;18.23;4.72;;;;;;;18.22;77.14;99454.28;5016902;28;20033;-77
2021/10/03 10:39:09;;;;;;;7.13;3.67;;;;;;;18.21;77.04;99457.13;5002792;28;20034;-76
2021/10/03 10:41:40;;;;;;;9.07;3.88;;;;;;;18.28;76.62;99457.75;5016163;28;20032;-76
2021/10/03 10:44:25;;;;;;;8.85;3.90;;;;;;;18.31;76.52;99466.97;5015949;28;20506;-76
2021/10/03 10:46:55;;;;;;;5.63;3.92;;;;;;;18.43;75.58;99458.00;5012804;28;20034;-75
2021/10/03 10:49:35;;;;;;;9.55;4.47;;;;;;;18.40;75.92;99461.13;5008587;28;20037;-77
2021/10/03 10:52:34;;;;;;;6.13;3.83;;;;;;;18.42;74.62;99464.28;5007880;28;20042;-75
2021/10/03 10:55:04;;;;;;;7.22;3.53;;;;;;;18.54;74.32;99472.06;4987567;28;20132;-80
2021/10/03 10:57:52;;;;;;;11.65;6.05;;;;;;;18.51;74.02;99475.16;5005859;28;20041;-79
2021/10/03 11:00:22;;;;;;;6.65;4.15;;;;;;;18.49;74.75;99482.47;5016268;28;20099;-75
2021/10/03 11:02:47;;;;;;;8.38;3.83;;;;;;;18.67;72.61;99465.69;5014485;28;20030;-75
2021/10/03 11:05:32;;;;;;;10.63;4.07;;;;;;;18.66;73.62;99475.38;5008618;28;20458;-76
2021/10/03 11:08:29;;;;;;;7.35;4.13;;;;;;;18.77;72.68;99478.16;5009696;28;20119;-75
2021/10/03 11:11:01;;;;;;;6.07;3.72;;;;;;;18.79;71.89;99490.00;4991449;28;20056;-75
2021/10/03 11:13:38;;;;;;;7.15;4.15;;;;;;;18.83;70.81;99480.63;5004564;28;20160;-75
2021/10/03 11:16:27;;;;;;;6.53;3.88;;;;;;;18.76;72.58;99492.31;5017104;28;20038;-75
2021/10/03 11:18:57;;;;;;;6.57;4.25;;;;;;;18.80;72.24;99493.44;5013693;28;20040;-75
2021/10/03 11:21:35;;;;;;;5.65;3.90;;;;;;;18.77;72.41;99496.53;5024847;28;20029;-79
2021/10/03 11:24:04;;;;;;;6.40;3.85;;;;;;;18.77;72.49;99510.44;5030459;28;20034;-75
2021/10/03 11:26:44;;;;;;;5.00;4.07;;;;;;;18.74;72.75;99508.31;5006107;28;20035;-76
2021/10/03 11:29:09;;;;;;;6.55;4.45;;;;;;;18.83;72.27;99506.88;5018419;28;20463;-75
2021/10/03 11:31:51;;;;;;;6.68;3.42;;;;;;;18.81;72.22;99500.28;5010625;28;20022;-76
2021/10/03 11:34:29;;;;;;;6.50;4.00;;;;;;;18.79;72.71;99503.13;5022268;28;20022;-74
2021/10/03 11:36:56;;;;;;;8.98;3.72;;;;;;;18.82;72.67;99515.03;4997985;28;20038;-75